Nearby METAR Reports

 

KSJC - San Jose, California, USA
Distance from station: NE 14km
Updated: 2020-06-04 20:53
Few Clouds
Few Clouds
 Wind from NNW
Wind: NNW 17 km/h
Temperature: 27°C
Dew Point: 12°C
Humidity: 39%
Barometer: 1005.4 hPa
Clouds: Few Clouds
Visibility: 16 km
Cloud details: Few Clouds 305 m
2020/06/05 01:53 KSJC 050153Z 34009KT 10SM FEW010 27/12 A2969 RMK AO2 SLP052 FU FEW010 T02670117
KNUQ - Moffett Nas/Mtn, California, USA
Distance from station: N 14km
Updated: 2020-06-04 08:55
NOT Current
Clear
Clear
 Wind from calm
Wind: Calm
Temperature: 17°C
Dew Point: 14°C
Humidity: 83%
Barometer: 1009.5 hPa
Clouds: Clear
Visibility: 13 km
2020/06/04 13:55 KNUQ 041355Z AUTO 00000KT 8SM CLR 17/14 A2981 RMK AO2
 
KPAO - Palo Alto, California, USA
Distance from station: NNW 23km
Updated: 2020-06-04 17:47
NOT Current
Few Clouds
Few Clouds
 Wind from NNW
Wind: NNW 20 km/h
Temperature: 28°C
Heat Index: 28°C
Dew Point: 14°C
Humidity: 42%
Barometer: 1007.1 hPa
Clouds: Few Clouds
Visibility: 16 km
Cloud details: Few Clouds 1829 m
2020/06/04 22:47 KPAO 042247Z 34011KT 10SM FEW060 28/14 A2974 RMK LAST
KRHV - San Jose/Reid, California, USA
Distance from station: ENE 19km
Updated: 2020-06-04 20:55
Clear
Clear
 Wind from NW
Wind: NW 22 km/h
Temperature: 29°C
Dew Point: 13°C
Humidity: 37%
Barometer: 1005.4 hPa
Clouds: Clear
Visibility: 16 km
2020/06/05 01:55 KRHV 050155Z 31012KT 10SM SKC 29/13 A2969
 
KOAK - Oakland, California, USA
Distance from station: NNW 50km
Updated: 2020-06-04 20:53
Clear
Clear
 Wind from WNW
Wind: WNW 26 km/h
Temperature: 20°C
Dew Point: 11°C
Humidity: 56%
Barometer: 1006.1 hPa
Clouds: Clear
Visibility: 16 km
2020/06/05 01:53 KOAK 050153Z 30014KT 10SM CLR 20/11 A2971 RMK AO2 SLP061 T02000111
KSQL - San Carlos Airpo, California, USA
Distance from station: NW 34km
Updated: 2020-06-04 20:47
Clear
Clear
 Wind from NW
Wind: NW 17 km/h
Temperature: 24°C
Dew Point: 10°C
Humidity: 41%
Barometer: 1005.8 hPa
Clouds: Clear
Visibility: 16 km
2020/06/05 01:47 KSQL 050147Z 31009KT 10SM SKC 24/10 A2970
 
KSFO - San Francisco, California, USA
Distance from station: NW 49km
Updated: 2020-06-04 20:56
Few Clouds
Few Clouds
 Wind from WNW
Wind: WNW 28 km/h
Temperature: 18°C
Dew Point: 9°C
Humidity: 56%
Barometer: 1005.8 hPa
Clouds: Few Clouds
Visibility: 16 km
Cloud details: Few Clouds 6096 m
2020/06/05 01:56 KSFO 050156Z 30015KT 10SM FEW200 18/09 A2970 RMK AO2 SLP058 T01780094
KE16 - San Martin, California, USA
Distance from station: ESE 43km
Updated: 2020-06-04 20:45
Clear
Clear
 Wind from S
Wind: S 19 km/h
Temperature: 22°C
Dew Point: 10°C
Humidity: 47%
Barometer: 1007.1 hPa
Clouds: Clear
Visibility: 16 km
2020/06/05 01:45 KE16 050145Z AUTO 17010KT 10SM CLR 22/10 A2974 RMK AO2 PWINO PNO
 
KWVI - Watsonville, California, USA
Distance from station: SSE 44km
Updated: 2020-06-04 20:53
Clear
Clear
 Wind from W
Wind: W 11 km/h
Temperature: 17°C
Dew Point: 12°C
Humidity: 73%
Barometer: 1008.8 hPa
Clouds: Clear
Visibility: 16 km
2020/06/05 01:53 KWVI 050153Z AUTO 27006KT 10SM CLR 17/12 A2979 RMK AO2 SLPNO T01670117
KHAF - Half Moon Bay, California, USA
Distance from station: WNW 50km
Updated: 2020-06-04 20:55
Haze, Clear
Haze, Clear
 Wind from WNW
Wind: WNW 13 km/h
Temperature: 14°C
Dew Point: 10°C
Humidity: 77%
Barometer: 1008.1 hPa
Summary: Haze
Clouds: Clear
Visibility: 6 km
2020/06/05 01:55 KHAF 050155Z AUTO 29007KT 4SM HZ CLR 14/10 A2977 RMK AO2
 
KHWD - Hayward, California, USA
Distance from station: N 44km
Updated: 2020-06-04 20:54
Clear
Clear
 Wind from WNW
Wind: WNW 15 km/h
Temperature: 22°C
Dew Point: 12°C
Humidity: 53%
Barometer: 1005.8 hPa
Clouds: Clear
Visibility: 16 km
2020/06/05 01:54 KHWD 050154Z 30008KT 10SM CLR 22/12 A2970 RMK AO2 SLP066 T02170117
KLVK - Livermore, California, USA
Distance from station: NNE 51km
Updated: 2020-06-04 20:53
Clear
Clear
 Wind from WNW
Wind: WNW 22 km/h
Temperature: 28°C
Dew Point: 9°C
Humidity: 30%
Barometer: 1004.4 hPa
Clouds: Clear
Visibility: 16 km
2020/06/05 01:53 KLVK 050153Z 30012KT 10SM CLR 28/09 A2966 RMK AO2 SLP039 T02830089